Time;durP1;ratioP1;P1;durP2;ratioP2;P2;SDS_P1;SDS_P2;PMS_P1;PMS_P2;Temp;Humidity;BMP_temperature;BMP_pressure;BME280_temperature;BME280_humidity;BME280_pressure;Samples;Min_cycle;Max_cycle;Signal;HPM_P1;HPM_P2
2023/09/24 00:01:03;;;;;;;3.20;1.38;;;13.60;76.50;;;12.19;100.00;96612.56;6037489;23;20658;-64
2023/09/24 00:03:28;;;;;;;2.30;1.40;;;13.60;76.50;;;12.14;100.00;96612.31;6084242;23;20022;-63
2023/09/24 00:05:54;;;;;;;4.13;1.60;;;13.60;76.60;;;12.07;100.00;96617.53;6059444;23;20044;-63
2023/09/24 00:08:20;;;;;;;3.22;1.40;;;13.50;76.60;;;12.04;100.00;96617.09;6060299;23;20056;-63
2023/09/24 00:10:51;;;;;;;2.60;1.27;;;13.50;76.90;;;12.01;100.00;96631.47;6084222;23;20069;-64
2023/09/24 00:13:18;;;;;;;4.10;1.42;;;13.40;76.90;;;11.97;100.00;96624.91;6060702;23;20431;-62
2023/09/24 00:15:43;;;;;;;3.78;1.25;;;13.40;77.00;;;11.91;100.00;96620.38;6036695;23;20033;-64
2023/09/24 00:18:09;;;;;;;3.72;1.70;;;13.30;77.20;;;11.86;100.00;96626.19;6061129;23;20362;-64
2023/09/24 00:20:35;;;;;;;4.03;1.35;;;13.20;77.20;;;11.82;100.00;96629.41;6087012;23;20465;-64
2023/09/24 00:23:01;;;;;;;3.97;1.40;;;13.20;77.40;;;11.78;100.00;96628.09;6086684;23;20064;-63
2023/09/24 00:25:28;;;;;;;2.03;1.40;;;13.10;77.50;;;11.73;100.00;96635.72;6063856;23;20151;-63
2023/09/24 00:27:54;;;;;;;3.92;1.38;;;13.10;77.50;;;11.68;100.00;96638.09;6063602;23;20010;-64
2023/09/24 00:30:20;;;;;;;3.10;1.48;;;13.00;77.80;;;11.62;100.00;96637.81;6039707;23;20069;-64
2023/09/24 00:32:46;;;;;;;2.00;1.30;;;13.10;77.80;;;11.59;100.00;96645.28;6062637;23;20424;-64
2023/09/24 00:35:11;;;;;;;3.75;1.40;;;13.00;77.90;;;11.53;100.00;96645.97;6087340;23;20015;-64
2023/09/24 00:37:37;;;;;;;2.30;1.40;;;13.00;78.10;;;11.50;100.00;96652.44;6063545;23;20398;-65
2023/09/24 00:40:05;;;;;;;3.20;1.50;;;12.90;78.30;;;11.47;100.00;96651.97;6063780;23;20097;-64
2023/09/24 00:42:32;;;;;;;3.22;1.83;;;12.90;78.30;;;11.43;100.00;96650.72;6087383;23;20392;-64
2023/09/24 00:44:58;;;;;;;4.50;1.52;;;12.90;78.40;;;11.40;100.00;96648.44;6063394;23;20535;-64
2023/09/24 00:47:24;;;;;;;4.10;1.48;;;12.80;78.50;;;11.35;100.00;96652.44;6087203;23;20618;-64
2023/09/24 00:49:51;;;;;;;4.40;1.60;;;12.80;78.50;;;11.32;100.00;96657.25;6062687;23;20022;-65
2023/09/24 00:52:16;;;;;;;2.80;1.63;;;12.70;78.60;;;11.26;100.00;96656.13;6087064;23;20017;-64
2023/09/24 00:54:42;;;;;;;3.75;1.60;;;12.70;78.70;;;11.23;100.00;96655.69;6063945;23;20006;-64
2023/09/24 00:57:08;;;;;;;5.32;1.75;;;12.60;78.90;;;11.19;100.00;96654.41;6087000;23;20046;-64
2023/09/24 00:59:33;;;;;;;3.05;1.67;;;12.60;79.00;;;11.15;100.00;96658.41;6063388;23;20010;-64
2023/09/24 01:02:01;;;;;;;2.78;1.45;;;12.50;79.00;;;11.11;100.00;96665.03;6086593;23;20100;-64
2023/09/24 01:04:27;;;;;;;3.97;1.88;;;12.60;79.20;;;11.08;100.00;96657.44;6087080;23;20466;-64
2023/09/24 01:06:54;;;;;;;3.75;1.60;;;12.50;79.30;;;11.04;100.00;96657.81;6063309;23;20014;-63
2023/09/24 01:09:19;;;;;;;2.75;1.60;;;12.50;79.40;;;11.01;100.00;96655.53;6063580;23;20045;-64
2023/09/24 01:11:45;;;;;;;3.65;1.75;;;12.40;79.50;;;10.98;100.00;96655.91;6063018;23;20487;-64
2023/09/24 01:14:11;;;;;;;3.05;1.77;;;12.40;79.50;;;10.95;100.00;96660.72;6038640;23;20046;-64
2023/09/24 01:16:38;;;;;;;3.20;1.80;;;12.40;79.50;;;10.92;100.00;96667.16;6084916;23;20014;-65
2023/09/24 01:19:05;;;;;;;3.22;1.83;;;12.40;79.50;;;10.88;100.00;96663.22;6090420;23;20034;-63
2023/09/24 01:21:30;;;;;;;4.35;1.55;;;12.30;79.40;;;10.87;100.00;96669.50;6041212;23;20025;-64
2023/09/24 01:23:58;;;;;;;3.90;1.60;;;12.30;79.40;;;10.83;100.00;96665.56;6064141;23;20014;-63
2023/09/24 01:26:25;;;;;;;3.58;1.73;;;12.20;79.40;;;10.78;100.00;96678.44;6065066;23;20011;-64
2023/09/24 01:28:51;;;;;;;5.18;1.98;;;12.20;79.50;;;10.74;100.00;96670.06;6064793;23;20065;-65
2023/09/24 01:31:21;;;;;;;3.38;1.75;;;12.20;79.70;;;10.70;100.00;96675.88;6041040;23;20022;-64
2023/09/24 01:33:50;;;;;;;3.50;1.58;;;12.10;79.70;;;10.66;100.00;96679.84;6043578;23;20014;-64
2023/09/24 01:36:17;;;;;;;3.47;1.60;;;12.00;80.00;;;10.63;100.00;96680.16;6089381;23;20034;-64
2023/09/24 01:38:43;;;;;;;4.50;1.85;;;12.00;80.20;;;10.60;100.00;96686.59;6089571;23;20101;-65
2023/09/24 01:41:12;;;;;;;3.88;2.20;;;12.00;80.10;;;10.58;100.00;96687.78;6064759;23;20041;-64
2023/09/24 01:43:48;;;;;;;3.47;1.70;;;12.00;80.30;;;10.56;100.00;96681.88;6065759;23;20014;-64
2023/09/24 01:46:14;;;;;;;3.88;2.00;;;11.90;80.50;;;10.51;100.00;96679.78;6089748;23;20014;-64
2023/09/24 01:48:40;;;;;;;3.97;2.33;;;11.90;80.50;;;10.49;100.00;96678.31;6089467;23;20536;-64
2023/09/24 01:51:11;;;;;;;2.88;1.55;;;11.80;80.50;;;10.45;100.00;96677.03;6086322;23;20346;-64
2023/09/24 01:53:38;;;;;;;2.72;1.70;;;11.80;80.60;;;10.41;100.00;96676.56;6042167;23;20085;-64
2023/09/24 01:56:07;;;;;;;4.47;1.75;;;11.80;80.80;;;10.39;100.00;96681.97;6088988;23;20472;-62
2023/09/24 01:58:33;;;;;;;5.47;1.92;;;11.80;81.00;;;10.38;100.00;96692.66;6065703;23;20052;-63
2023/09/24 02:00:59;;;;;;;3.63;1.90;;;11.80;80.90;;;10.34;100.00;96696.63;6065334;23;20550;-64
2023/09/24 02:03:26;;;;;;;3.75;1.80;;;11.80;81.00;;;10.32;100.00;96704.69;6065070;23;20015;-64
2023/09/24 02:05:52;;;;;;;7.32;1.92;;;11.80;81.00;;;10.30;100.00;96711.94;6064866;23;20372;-64
2023/09/24 02:08:18;;;;;;;4.43;2.00;;;11.70;81.10;;;10.29;100.00;96718.19;6041020;23;20014;-63
2023/09/24 02:10:44;;;;;;;3.47;1.80;;;11.70;81.20;;;10.27;100.00;96717.53;6088967;23;20014;-63
2023/09/24 02:13:11;;;;;;;4.20;1.98;;;11.70;81.20;;;10.25;100.00;96722.16;6089107;23;20389;-63
2023/09/24 02:15:38;;;;;;;5.65;2.10;;;11.70;81.10;;;10.25;100.00;96727.41;6089129;23;20528;-63
2023/09/24 02:18:04;;;;;;;4.70;1.85;;;11.70;81.10;;;10.23;100.00;96732.03;6086516;23;20434;-64
2023/09/24 02:22:57;;;;;;;4.22;1.92;;;11.60;81.00;;;10.18;100.00;96738.72;6064752;23;20014;-64
2023/09/24 02:25:28;;;;;;;3.08;1.70;;;11.70;80.90;;;10.14;100.00;96733.81;6065251;23;20440;-64
2023/09/24 02:27:55;;;;;;;3.55;1.70;;;11.60;80.90;;;10.13;100.00;96739.25;6042207;23;20002;-63
2023/09/24 02:30:21;;;;;;;3.25;2.10;;;11.60;81.10;;;10.10;100.00;96736.97;6089693;23;20022;-63
2023/09/24 02:32:47;;;;;;;4.07;1.88;;;11.50;81.20;;;10.08;100.00;96742.41;6064563;23;20093;-64
2023/09/24 02:35:13;;;;;;;2.95;2.00;;;11.50;81.10;;;10.06;100.00;96740.94;6040315;23;20025;-64
2023/09/24 02:37:44;;;;;;;3.13;2.00;;;11.50;81.20;;;10.03;100.00;96749.16;6065019;23;20006;-63
2023/09/24 02:40:31;;;;;;;3.40;2.13;;;11.40;81.20;;;10.01;100.00;96751.13;6041993;23;20113;-63
2023/09/24 02:43:05;;;;;;;2.65;1.80;;;11.40;81.30;;;9.97;100.00;96755.91;6067932;23;20420;-63
2023/09/24 02:45:31;;;;;;;2.72;1.90;;;11.40;81.40;;;9.96;100.00;96753.47;6065516;23;20073;-63
2023/09/24 02:47:57;;;;;;;3.63;1.98;;;11.40;81.50;;;9.94;100.00;96761.47;6064678;23;20049;-64
2023/09/24 02:50:25;;;;;;;5.80;1.92;;;11.40;81.40;;;9.92;100.00;96760.00;6064461;23;20022;-63
2023/09/24 02:52:55;;;;;;;5.50;2.20;;;11.30;81.50;;;9.89;100.00;96765.63;6088557;23;20018;-63
2023/09/24 02:55:22;;;;;;;4.65;2.00;;;11.40;81.40;;;9.87;100.00;96778.09;6065352;23;20101;-63
2023/09/24 02:57:51;;;;;;;4.72;2.17;;;11.40;81.40;;;9.85;100.00;96770.38;6041964;23;20101;-64
2023/09/24 03:00:26;;;;;;;3.50;2.10;;;11.40;81.60;;;9.86;100.00;96771.22;6064842;23;20022;-63
2023/09/24 03:02:53;;;;;;;3.75;1.92;;;11.30;81.70;;;9.84;100.00;96774.00;6088487;23;20022;-63
2023/09/24 03:05:24;;;;;;;6.63;1.80;;;11.30;81.50;;;9.83;100.00;96778.44;6064071;23;20577;-64
2023/09/24 03:07:54;;;;;;;3.92;2.30;;;11.30;81.60;;;9.83;100.00;96782.88;6088903;23;20014;-64
2023/09/24 03:10:20;;;;;;;3.28;2.13;;;11.30;81.60;;;9.82;100.00;96775.97;6064804;23;20010;-64
2023/09/24 03:12:46;;;;;;;4.20;2.17;;;11.30;81.40;;;9.82;100.00;96775.97;6089082;23;20364;-64
2023/09/24 03:15:12;;;;;;;3.28;2.30;;;11.30;81.50;;;9.82;100.00;96784.69;6064331;23;20018;-63
2023/09/24 03:17:42;;;;;;;3.15;2.20;;;11.30;81.50;;;9.81;100.00;96788.31;6038725;23;20010;-66
2023/09/24 03:20:15;;;;;;;3.17;1.90;;;11.30;81.40;;;9.79;100.00;96787.66;6064403;23;20053;-63
2023/09/24 03:22:50;;;;;;;5.03;2.08;;;11.30;81.40;;;9.78;100.00;96788.63;6065842;23;20010;-64
2023/09/24 03:25:20;;;;;;;3.58;2.03;;;11.30;81.30;;;9.77;100.00;96794.88;6065892;23;20014;-63
2023/09/24 03:27:46;;;;;;;4.50;2.45;;;11.30;81.30;;;9.76;100.00;96792.41;6064947;23;20018;-66
2023/09/24 03:30:13;;;;;;;5.38;2.50;;;11.30;81.30;;;9.75;100.00;96786.34;6040312;23;20400;-64
2023/09/24 03:32:40;;;;;;;4.72;2.10;;;11.20;81.20;;;9.74;100.00;96789.16;6087996;23;20483;-63
2023/09/24 03:35:09;;;;;;;4.00;2.17;;;11.20;81.20;;;9.73;100.00;96796.22;6064032;23;20016;-63
2023/09/24 03:37:40;;;;;;;4.30;2.20;;;11.20;81.10;;;9.71;100.00;96794.69;6041682;23;20663;-64
2023/09/24 03:40:27;;;;;;;2.88;2.05;;;11.20;81.10;;;9.70;100.00;96809.66;6065346;23;20002;-63
2023/09/24 03:42:53;;;;;;;3.65;2.20;;;11.20;81.10;;;9.68;100.00;96795.84;6064139;23;20022;-65
2023/09/24 03:45:20;;;;;;;3.45;2.30;;;11.10;81.00;;;9.65;100.00;96801.44;6064154;23;20069;-64
2023/09/24 03:47:46;;;;;;;3.85;2.42;;;11.20;81.00;;;9.65;100.00;96811.13;6064841;23;20018;-64
2023/09/24 03:50:13;;;;;;;4.45;2.42;;;11.10;81.20;;;9.61;100.00;96802.78;6063353;23;20018;-63
2023/09/24 03:52:46;;;;;;;3.15;2.10;;;11.10;81.20;;;9.59;100.00;96807.38;6064508;23;20037;-63
2023/09/24 03:55:11;;;;;;;6.32;2.63;;;11.10;81.10;;;9.56;100.00;96815.59;6065446;23;20291;-63
2023/09/24 03:57:38;;;;;;;3.60;2.20;;;11.10;81.20;;;9.51;100.00;96810.84;6064272;23;20022;-63
2023/09/24 04:00:11;;;;;;;6.40;2.30;;;11.00;81.30;;;9.49;100.00;96806.69;6064139;23;20076;-63
2023/09/24 04:02:39;;;;;;;4.25;2.13;;;11.00;81.20;;;9.47;100.00;96803.44;6064994;23;20037;-63
2023/09/24 04:05:09;;;;;;;3.20;2.22;;;11.00;81.20;;;9.46;100.00;96810.47;6064307;23;20148;-64
2023/09/24 04:07:37;;;;;;;4.18;2.10;;;10.90;81.10;;;9.43;100.00;96818.69;6065171;23;20015;-65
2023/09/24 04:10:04;;;;;;;5.65;2.28;;;10.90;81.00;;;9.40;100.00;96818.19;6065475;23;20065;-63
2023/09/24 04:12:34;;;;;;;2.92;1.88;;;10.90;80.80;;;9.38;100.00;96821.00;6040400;23;20018;-65
2023/09/24 04:15:01;;;;;;;3.45;1.85;;;10.80;80.70;;;9.35;100.00;96815.25;6088735;23;20022;-63
2023/09/24 04:17:27;;;;;;;3.47;2.17;;;10.80;80.80;;;9.34;100.00;96813.63;6077268;23;20015;-63
2023/09/24 04:19:53;;;;;;;4.50;2.30;;;10.80;80.80;;;9.32;100.00;96805.09;6064053;23;20014;-64
2023/09/24 04:22:19;;;;;;;3.22;1.90;;;10.80;81.00;;;9.30;100.00;96809.69;6040342;23;20120;-63
2023/09/24 04:24:45;;;;;;;5.05;2.03;;;10.70;81.10;;;9.27;100.00;96812.59;6064815;23;20022;-64
2023/09/24 04:27:10;;;;;;;3.17;1.95;;;10.70;81.20;;;9.25;100.00;96809.31;6040082;23;20089;-63
2023/09/24 04:29:37;;;;;;;8.18;2.20;;;10.70;81.30;;;9.20;100.00;96810.63;6016510;23;20109;-63
2023/09/24 04:32:02;;;;;;;3.33;2.30;;;10.70;81.30;;;9.19;100.00;96809.00;6064124;23;20124;-63
2023/09/24 04:34:28;;;;;;;5.22;1.95;;;10.60;81.40;;;9.18;100.00;96820.47;6063663;23;20541;-63
2023/09/24 04:36:54;;;;;;;10.20;7.00;;;10.70;81.40;;;9.17;100.00;96829.34;6041170;23;20090;-64
2023/09/24 04:39:20;;;;;;;17.75;12.90;;;10.70;81.40;;;9.17;100.00;96834.59;6063645;23;20042;-63
2023/09/24 04:41:47;;;;;;;8.93;5.85;;;10.70;81.60;;;9.16;100.00;96832.94;6040038;23;20108;-67
2023/09/24 04:44:13;;;;;;;2.83;2.00;;;10.60;81.60;;;9.15;100.00;96836.56;6016349;23;20021;-67
2023/09/24 04:46:39;;;;;;;5.47;2.67;;;10.60;81.50;;;9.14;100.00;96834.09;6064756;23;20018;-65
2023/09/24 04:49:05;;;;;;;3.28;1.98;;;10.60;81.60;;;9.12;100.00;96836.88;6065015;23;20046;-66
2023/09/24 04:51:33;;;;;;;4.82;1.75;;;10.60;81.70;;;9.11;100.00;96844.94;6039466;23;20101;-67
2023/09/24 04:54:00;;;;;;;4.40;2.63;;;10.60;81.70;;;9.10;100.00;96838.03;6041593;23;20025;-66
2023/09/24 04:56:29;;;;;;;5.20;2.30;;;10.60;81.60;;;9.08;100.00;96832.94;6018767;23;20025;-65
2023/09/24 04:58:55;;;;;;;2.95;2.33;;;10.60;81.60;;;9.07;100.00;96835.75;6042086;23;20586;-65
2023/09/24 05:01:21;;;;;;;6.00;2.20;;;10.60;81.40;;;9.04;100.00;96838.66;6042100;23;20094;-66
2023/09/24 05:03:49;;;;;;;4.05;2.10;;;10.60;81.50;;;9.04;100.00;96842.09;6067024;23;20006;-65
2023/09/24 05:06:15;;;;;;;4.53;2.22;;;10.60;81.70;;;9.03;100.00;96842.25;6065364;23;20023;-65
2023/09/24 05:08:41;;;;;;;6.93;2.08;;;10.60;81.70;;;9.01;100.00;96834.56;6041855;23;20321;-68
2023/09/24 05:11:11;;;;;;;6.10;2.20;;;10.50;81.90;;;8.99;100.00;96841.78;6066035;23;20121;-65
2023/09/24 05:13:36;;;;;;;5.18;2.63;;;10.50;81.90;;;8.97;100.00;96843.72;6018101;23;20796;-67
2023/09/24 05:16:02;;;;;;;5.22;2.65;;;10.50;81.90;;;8.98;100.00;96848.00;6066731;23;20053;-65
2023/09/24 05:18:29;;;;;;;5.85;3.90;;;10.50;81.90;;;8.96;100.00;96847.34;6039053;23;20123;-64
2023/09/24 05:20:54;;;;;;;7.65;5.30;;;10.50;82.00;;;8.98;100.00;96860.31;6041759;23;20401;-64
2023/09/24 05:23:21;;;;;;;6.57;3.85;;;10.60;82.10;;;8.97;100.00;96856.03;6041478;23;20014;-64
2023/09/24 05:25:49;;;;;;;4.35;3.00;;;10.60;82.00;;;8.96;100.00;96864.88;6042101;23;20014;-64
2023/09/24 05:28:14;;;;;;;3.95;3.20;;;10.60;82.00;;;8.95;100.00;96858.81;6066059;23;20046;-63
2023/09/24 05:30:40;;;;;;;3.88;2.42;;;10.60;82.00;;;8.97;100.00;96871.78;6041476;23;20116;-63
2023/09/24 05:33:07;;;;;;;5.15;2.72;;;10.60;82.10;;;8.97;100.00;96872.59;6041614;23;20034;-65
2023/09/24 05:35:32;;;;;;;4.13;2.63;;;10.60;82.10;;;8.99;100.00;96861.94;6041398;23;20024;-64
2023/09/24 05:37:58;;;;;;;4.60;2.55;;;10.60;82.00;;;8.99;100.00;96873.25;6065514;23;20014;-64
2023/09/24 05:40:24;;;;;;;3.63;2.80;;;10.60;82.00;;;9.00;100.00;96864.41;6041486;23;20464;-64
2023/09/24 05:42:50;;;;;;;4.75;2.80;;;10.60;81.90;;;8.99;100.00;96864.56;6018718;23;20082;-66
2023/09/24 05:45:16;;;;;;;6.25;3.85;;;10.60;82.00;;;8.99;100.00;96873.25;6066033;23;20038;-63
2023/09/24 05:47:42;;;;;;;33.97;20.90;;;10.60;81.90;;;9.01;100.00;96871.28;6042355;23;20865;-62
2023/09/24 05:50:08;;;;;;;21.85;13.57;;;10.70;81.80;;;9.03;100.00;96873.75;6066141;23;20014;-63
2023/09/24 05:52:33;;;;;;;8.48;5.15;;;10.70;81.80;;;9.04;100.00;96878.84;6042057;23;20042;-63
2023/09/24 05:54:59;;;;;;;3.92;2.90;;;10.80;81.70;;;9.08;100.00;96888.06;6018946;23;20014;-63
2023/09/24 05:57:28;;;;;;;5.22;2.85;;;10.80;81.80;;;9.11;100.00;96893.00;6066332;23;20205;-62
2023/09/24 05:59:55;;;;;;;6.38;3.28;;;10.80;81.70;;;9.15;100.00;96898.72;6043406;23;20029;-62
2023/09/24 06:02:26;;;;;;;5.70;3.60;;;10.90;81.70;;;9.19;100.00;96893.00;6042107;23;20059;-62
2023/09/24 06:04:55;;;;;;;7.78;5.40;;;11.00;81.80;;;9.23;100.00;96892.66;6067934;23;20472;-63
2023/09/24 06:07:22;;;;;;;4.53;3.45;;;11.00;81.90;;;9.26;100.00;96892.34;6018375;23;20014;-63
2023/09/24 06:09:48;;;;;;;15.70;11.45;;;11.10;81.70;;;9.31;100.00;96897.97;6043173;23;20014;-63
2023/09/24 06:12:14;;;;;;;28.85;21.08;;;11.10;81.60;;;9.35;100.00;96902.72;6065905;23;20018;-63
2023/09/24 06:14:39;;;;;;;12.73;8.43;;;11.10;81.50;;;9.39;100.00;96898.78;5994708;23;20018;-64
2023/09/24 06:17:05;;;;;;;29.42;19.83;;;11.20;81.40;;;9.45;100.00;96902.56;6040260;23;20846;-64
2023/09/24 06:19:32;;;;;;;6.70;4.03;;;11.30;81.60;;;9.50;100.00;96902.88;6017949;23;20696;-65
2023/09/24 06:21:58;;;;;;;19.65;13.40;;;11.40;81.20;;;9.55;100.00;96905.88;6043020;23;20010;-63
2023/09/24 06:24:24;;;;;;;18.88;14.38;;;11.50;81.40;;;9.59;100.00;96915.06;6018096;23;20073;-66
2023/09/24 06:26:49;;;;;;;13.15;7.40;;;11.50;81.50;;;9.65;100.00;96919.66;6042033;23;20105;-65
2023/09/24 06:29:18;;;;;;;6.00;3.97;;;11.60;81.30;;;9.71;100.00;96916.38;6041284;23;20109;-66
2023/09/24 06:31:46;;;;;;;8.38;5.30;;;11.60;80.90;;;9.77;100.00;96921.00;6064908;23;20022;-66
2023/09/24 06:34:12;;;;;;;19.67;14.40;;;11.70;80.80;;;9.85;100.00;96932.47;6018286;23;20021;-66
2023/09/24 06:36:37;;;;;;;12.00;7.57;;;11.80;80.60;;;9.91;100.00;96924.75;6040657;23;20097;-68
2023/09/24 06:39:08;;;;;;;9.77;7.32;;;11.90;80.30;;;9.98;100.00;96932.81;6018163;23;20110;-67
2023/09/24 06:41:34;;;;;;;6.80;4.35;;;12.00;80.10;;;10.03;100.00;96936.59;6042828;23;20119;-67
2023/09/24 06:43:59;;;;;;;7.72;3.78;;;12.10;80.10;;;10.11;100.00;96928.69;6065758;23;20006;-63
2023/09/24 06:46:25;;;;;;;20.88;12.98;;;12.20;79.90;;;10.21;100.00;96927.75;6041541;23;20048;-63
2023/09/24 06:48:51;;;;;;;12.10;8.25;;;12.30;79.80;;;10.31;100.00;96939.72;6018520;23;20038;-64
2023/09/24 06:51:17;;;;;;;11.07;7.13;;;12.50;79.10;;;10.43;100.00;96946.28;6041767;23;20116;-63
2023/09/24 06:53:43;;;;;;;4.32;3.00;;;12.70;78.70;;;10.56;100.00;96945.75;6041329;23;20093;-67
2023/09/24 06:56:09;;;;;;;3.50;2.30;;;13.10;77.70;;;10.71;100.00;96946.72;6017637;23;20098;-66
2023/09/24 06:58:35;;;;;;;3.03;2.20;;;13.60;76.40;;;10.87;100.00;96940.59;6041041;23;20409;-66
2023/09/24 07:01:03;;;;;;;8.85;5.95;;;13.80;75.30;;;11.01;100.00;96947.75;6041961;23;20289;-68
2023/09/24 07:03:29;;;;;;;4.43;3.40;;;13.80;75.10;;;11.17;100.00;96946.06;6041413;23;20066;-67
2023/09/24 07:05:55;;;;;;;10.63;7.28;;;13.80;74.80;;;11.34;100.00;96950.25;6017491;23;20827;-67
2023/09/24 07:08:21;;;;;;;6.20;3.65;;;14.00;75.00;;;11.50;100.00;96952.78;6040921;23;20014;-65
2023/09/24 07:11:31;;;;;;;5.43;3.90;;;14.10;74.80;;;11.72;100.00;96942.44;6041017;23;20050;-66
2023/09/24 07:13:56;;;;;;;5.10;2.05;;;14.20;74.40;;;11.89;100.00;96944.00;6065363;23;20027;-65
2023/09/24 07:16:23;;;;;;;2.80;2.15;;;14.40;73.10;;;12.05;100.00;96951.78;6040719;23;20048;-67
2023/09/24 07:18:52;;;;;;;2.63;1.85;;;14.70;72.90;;;12.25;100.00;96958.22;6063120;23;20524;-66
2023/09/24 07:21:19;;;;;;;3.67;2.20;;;15.10;72.10;;;12.48;100.00;96952.09;6017609;23;20731;-64
2023/09/24 07:23:47;;;;;;;3.67;2.10;;;15.40;70.40;;;12.70;100.00;96945.09;6040742;23;20881;-66
2023/09/24 07:26:13;;;;;;;4.85;2.50;;;15.70;69.20;;;12.93;100.00;96945.00;6041565;23;20314;-66
2023/09/24 07:28:39;;;;;;;2.95;1.80;;;16.30;68.00;;;13.17;100.00;96958.78;6040302;23;20006;-66
2023/09/24 07:31:17;;;;;;;3.60;2.00;;;16.90;66.40;;;13.42;100.00;96948.72;6017538;23;20117;-66
2023/09/24 07:33:42;;;;;;;2.90;1.70;;;17.40;64.50;;;13.68;100.00;96944.72;6018250;23;20018;-66
2023/09/24 07:36:09;;;;;;;6.85;2.13;;;18.00;63.40;;;13.95;100.00;96946.59;6065549;23;20061;-66
2023/09/24 07:38:35;;;;;;;3.83;1.63;;;18.30;62.20;;;14.22;100.00;96946.84;6017360;23;20014;-66
2023/09/24 07:41:01;;;;;;;3.85;2.25;;;18.60;60.00;;;14.49;100.00;96950.56;6017271;23;20455;-66
2023/09/24 07:43:27;;;;;;;3.47;2.20;;;19.00;58.80;;;14.75;100.00;96950.75;6041100;23;20109;-66
2023/09/24 07:45:53;;;;;;;22.10;17.80;;;19.50;57.90;;;15.04;100.00;96944.38;6041832;23;20014;-66
2023/09/24 07:48:19;;;;;;;8.43;5.57;;;19.80;56.30;;;15.33;100.00;96946.75;6017025;23;20499;-66
2023/09/24 07:50:53;;;;;;;3.03;2.00;;;20.20;56.10;;;15.63;94.69;96943.03;6064965;23;20524;-65
2023/09/24 07:53:19;;;;;;;3.55;1.77;;;20.60;54.30;;;15.87;96.06;96947.78;6018373;23;20034;-66
2023/09/24 07:55:45;;;;;;;3.60;1.75;;;20.90;53.20;;;16.13;94.80;96942.50;6065160;23;20261;-64
2023/09/24 07:58:11;;;;;;;4.40;2.30;;;21.40;52.10;;;16.39;92.65;96948.84;6026411;23;20041;-63
2023/09/24 08:00:37;;;;;;;32.38;25.67;;;21.70;51.10;;;16.68;91.61;96955.59;6063571;23;20018;-65
2023/09/24 08:03:03;;;;;;;12.57;9.75;;;22.20;50.80;;;16.97;88.83;96954.31;6040606;23;20033;-65
2023/09/24 08:05:29;;;;;;;6.07;4.30;;;22.60;48.10;;;17.23;85.75;96948.13;6039794;23;20018;-65
2023/09/24 08:07:55;;;;;;;5.43;2.78;;;23.00;46.60;;;17.52;84.11;96946.78;6089937;23;20026;-68
2023/09/24 08:10:21;;;;;;;5.60;2.47;;;23.30;45.60;;;17.76;82.09;96938.09;6064523;23;20062;-63
2023/09/24 08:12:47;;;;;;;7.63;3.40;;;23.40;46.00;;;18.03;81.92;96936.06;6090279;23;20085;-66
2023/09/24 08:15:13;;;;;;;6.00;1.73;;;23.70;45.20;;;18.29;79.80;96943.84;6041217;23;20349;-64
2023/09/24 08:17:39;;;;;;;4.32;1.80;;;24.10;44.50;;;18.55;78.08;96942.81;6061862;23;20025;-64
2023/09/24 08:20:05;;;;;;;3.53;1.60;;;24.30;44.20;;;18.82;76.36;96937.31;6088540;23;20467;-64
2023/09/24 08:22:31;;;;;;;5.05;1.67;;;24.60;43.90;;;19.07;75.99;96939.91;6087701;23;20033;-63
2023/09/24 08:24:57;;;;;;;4.38;1.58;;;25.00;43.50;;;19.26;74.22;96928.22;6089632;23;20453;-64
2023/09/24 08:27:23;;;;;;;8.35;5.50;;;25.00;42.10;;;19.51;72.89;96926.25;6040190;23;20018;-64
2023/09/24 08:29:48;;;;;;;6.30;4.50;;;25.50;41.60;;;19.76;71.74;96922.66;6065438;23;20022;-65
2023/09/24 08:32:14;;;;;;;7.97;5.75;;;25.40;41.90;;;19.96;70.68;96923.19;6065678;23;20553;-66
2023/09/24 08:34:40;;;;;;;5.00;2.17;;;25.60;41.60;;;20.17;70.14;96922.69;6088766;23;20045;-64
2023/09/24 08:37:05;;;;;;;3.80;1.67;;;25.80;41.80;;;20.35;69.20;96926.28;6090472;23;20010;-64
2023/09/24 08:39:31;;;;;;;2.30;1.20;;;25.70;41.90;;;20.47;67.23;96933.31;6089174;23;20026;-66
2023/09/24 08:41:58;;;;;;;9.35;6.32;;;25.60;40.50;;;20.58;66.48;96926.34;6089051;23;20018;-66
2023/09/24 08:44:24;;;;;;;5.43;3.00;;;25.60;40.90;;;20.70;67.35;96929.84;6041348;23;20017;-66
2023/09/24 08:46:50;;;;;;;4.25;1.98;;;25.40;43.20;;;20.80;65.87;96935.41;6065735;23;20065;-65
2023/09/24 08:49:17;;;;;;;2.75;1.48;;;25.00;43.00;;;20.76;64.83;96926.22;6066250;23;20396;-66
2023/09/24 08:51:44;;;;;;;4.38;1.42;;;25.10;41.80;;;20.95;63.25;96910.06;6041347;23;20022;-66
2023/09/24 08:54:10;;;;;;;4.15;1.45;;;25.80;40.40;;;21.15;61.65;96917.72;6063733;23;20468;-66
2023/09/24 08:56:36;;;;;;;3.17;1.60;;;26.30;38.80;;;21.39;61.91;96914.78;6064801;23;20030;-65
2023/09/24 08:59:03;;;;;;;2.33;1.30;;;26.60;39.20;;;21.66;60.73;96912.34;6065437;23;20065;-66
2023/09/24 09:01:28;;;;;;;3.78;1.80;;;27.00;38.00;;;21.88;60.58;96904.44;6065141;23;20452;-66
2023/09/24 09:03:54;;;;;;;3.97;1.40;;;27.10;38.00;;;22.19;59.65;96900.47;6065437;23;20041;-65
2023/09/24 09:06:36;;;;;;;13.88;11.27;;;27.50;37.50;;;22.47;54.01;96859.34;6089335;23;20018;-66
2023/09/24 09:09:02;;;;;;;11.40;8.15;;;27.70;36.50;;;22.77;57.08;96884.97;6066690;23;20030;-64
2023/09/24 09:11:41;;;;;;;12.05;7.82;;;27.80;36.70;;;23.04;50.51;96834.09;6064632;23;20117;-63
2023/09/24 09:14:08;;;;;;;7.60;4.53;;;28.00;35.00;;;23.25;54.57;96864.69;6064959;23;20110;-63
2023/09/24 09:16:56;;;;;;;4.40;2.70;;;28.10;34.70;;;23.49;48.97;96831.13;6062560;23;20025;-64
2023/09/24 09:19:23;;;;;;;10.45;7.38;;;28.10;35.10;;;23.68;53.08;96863.84;6068612;23;20030;-64
2023/09/24 09:21:48;;;;;;;6.68;3.58;;;28.20;35.10;;;23.93;51.24;96849.84;6089492;23;20010;-64
2023/09/24 09:24:24;;;;;;;11.82;8.73;;;28.20;34.10;;;24.19;46.33;96813.22;6090566;23;20017;-66
2023/09/24 09:26:56;;;;;;;13.60;9.65;;;28.70;33.80;;;24.40;46.21;96815.84;6064803;23;20025;-65
2023/09/24 09:29:26;;;;;;;3.72;2.38;;;29.00;33.40;;;24.64;46.90;96823.50;6041840;23;20041;-64
2023/09/24 09:31:54;;;;;;;3.60;1.55;;;29.20;33.70;;;24.85;48.49;96840.56;6040978;23;20460;-66
2023/09/24 09:34:21;;;;;;;3.47;1.40;;;29.50;33.30;;;25.03;46.87;96824.81;6041800;23;20074;-66
2023/09/24 09:36:47;;;;;;;3.60;1.40;;;29.90;31.70;;;25.30;46.90;96821.13;6065256;23;20030;-62
2023/09/24 09:39:12;;;;;;;5.43;1.45;;;30.40;32.30;;;25.59;46.06;96808.84;6064682;23;20045;-61
2023/09/24 09:41:40;;;;;;;2.40;1.10;;;30.80;31.10;;;25.75;43.19;96790.00;6064382;23;20014;-63
2023/09/24 09:44:06;;;;;;;4.55;1.17;;;31.10;29.20;;;25.74;44.26;96804.56;6065017;23;20405;-63
2023/09/24 09:46:34;;;;;;;4.13;1.20;;;31.20;29.70;;;25.96;43.32;96797.00;6040686;23;20102;-62
2023/09/24 09:49:04;;;;;;;4.93;1.58;;;31.60;29.40;;;26.11;43.88;96805.09;6041638;23;20006;-62
2023/09/24 09:51:50;;;;;;;;;;;31.80;29.00;;;25.80;40.02;96771.13;6065726;23;20015;-63
2023/09/24 09:54:16;;;;;;;5.55;2.83;;;30.00;30.20;;;25.34;45.16;96816.81;6088748;23;19913;-63
2023/09/24 09:56:42;;;;;;;3.90;2.03;;;28.70;32.20;;;25.38;44.79;96807.16;6088766;23;20037;-64
2023/09/24 09:59:08;;;;;;;6.90;2.63;;;31.00;29.80;;;25.74;44.72;96794.56;6065188;23;20463;-63
2023/09/24 10:01:35;;;;;;;3.13;1.70;;;32.40;28.00;;;26.25;43.22;96800.78;6088101;23;20065;-63
2023/09/24 10:04:03;;;;;;;4.05;1.70;;;34.10;25.50;;;26.81;43.02;96799.88;6089184;23;20433;-65
2023/09/24 10:06:37;;;;;;;5.03;1.67;;;35.30;24.50;;;27.38;39.92;96768.81;6064823;23;20029;-63
2023/09/24 10:09:34;;;;;;;3.03;1.40;;;36.60;24.00;;;28.10;37.83;96747.50;6090378;23;20049;-63
2023/09/24 10:12:01;;;;;;;4.47;1.38;;;37.60;22.80;;;28.71;42.17;96796.41;6088480;23;20019;-65
2023/09/24 10:14:39;;;;;;;3.70;1.38;;;38.40;21.50;;;29.25;35.26;96719.38;6064596;23;20021;-62
2023/09/24 10:17:23;;;;;;;3.57;1.40;;;38.50;20.90;;;29.73;35.36;96727.34;6088312;23;20412;-65
2023/09/24 10:19:51;;;;;;;2.42;1.25;;;39.10;21.20;;;30.08;37.67;96753.09;6089845;23;20249;-63